Time;durP1;ratioP1;P1;durP2;ratioP2;P2;SDS_P1;SDS_P2;PMS_P1;PMS_P2;Temp;Humidity;BMP_temperature;BMP_pressure;BME280_temperature;BME280_humidity;BME280_pressure;Samples;Min_cycle;Max_cycle;Signal;HPM_P1;HPM_P2
2022/12/13 00:01:16;;;;;;;45.17;21.13;;;-3.60;99.90;;;;;;5108760;27;20090;-83
2022/12/13 00:03:42;;;;;;;44.85;21.80;;;-3.50;99.90;;;;;;5092545;27;20078;-84
2022/12/13 00:06:10;;;;;;;52.40;21.58;;;-3.40;99.90;;;;;;5109125;27;20054;-84
2022/12/13 00:08:36;;;;;;;44.28;20.33;;;-3.30;99.90;;;;;;5109184;27;20501;-84
2022/12/13 00:11:05;;;;;;;50.85;22.35;;;-3.20;99.90;;;;;;5109779;27;20043;-84
2022/12/13 00:13:31;;;;;;;43.28;21.33;;;-3.10;99.90;;;;;;5127438;27;20053;-83
2022/12/13 00:16:03;;;;;;;51.00;21.23;;;-3.10;99.90;;;;;;5092866;27;20134;-84
2022/12/13 00:18:29;;;;;;;48.83;21.63;;;-3.00;99.90;;;;;;5109463;27;20039;-84
2022/12/13 00:20:55;;;;;;;43.60;20.75;;;-3.00;99.90;;;;;;5110927;27;20093;-85
2022/12/13 00:23:22;;;;;;;49.00;21.42;;;-2.90;99.90;;;;;;5112623;27;20039;-84
2022/12/13 00:25:47;;;;;;;50.55;19.55;;;-2.90;99.90;;;;;;5114090;27;20047;-84
2022/12/13 00:28:14;;;;;;;47.33;20.65;;;-2.90;99.90;;;;;;5131335;27;20051;-85
2022/12/13 00:30:40;;;;;;;47.20;20.30;;;-1.50;99.90;;;;;;5098516;27;20055;-86
2022/12/13 00:33:06;;;;;;;40.72;20.50;;;-2.90;99.90;;;;;;5134673;27;20049;-84
2022/12/13 00:35:32;;;;;;;49.53;21.13;;;-2.90;99.90;;;;;;5115020;27;20050;-81
2022/12/13 00:37:58;;;;;;;45.75;20.90;;;-2.90;99.90;;;;;;5115692;27;20031;-84
2022/12/13 00:40:26;;;;;;;49.08;21.42;;;-3.00;99.90;;;;;;5113536;27;20053;-83
2022/12/13 00:42:52;;;;;;;40.35;18.75;;;-3.00;99.90;;;;;;5130553;27;20035;-83
2022/12/13 00:45:18;;;;;;;44.30;20.77;;;-3.00;99.90;;;;;;5110498;27;20101;-83
2022/12/13 00:47:45;;;;;;;44.17;20.83;;;-1.90;99.90;;;;;;5128944;27;20038;-83
2022/12/13 00:50:10;;;;;;;43.42;19.50;;;-3.00;99.90;;;;;;5128491;27;20035;-83
2022/12/13 00:52:36;;;;;;;45.08;20.52;;;-3.00;99.90;;;;;;5109561;27;20046;-84
2022/12/13 00:55:02;;;;;;;44.22;20.08;;;-3.10;99.90;;;;;;5092622;27;20035;-83
2022/12/13 00:57:28;;;;;;;42.20;20.20;;;-3.10;99.90;;;;;;5091577;27;20046;-83
2022/12/13 00:59:53;;;;;;;37.47;18.80;;;-3.10;99.90;;;;;;5092011;27;20046;-84
2022/12/13 01:02:19;;;;;;;46.72;20.33;;;-3.10;99.90;;;;;;5127349;27;20039;-84
2022/12/13 01:04:44;;;;;;;44.40;20.67;;;-2.10;99.90;;;;;;5091815;28;20043;-84
2022/12/13 01:07:10;;;;;;;40.63;19.35;;;-3.20;99.90;;;;;;5092384;28;20047;-84
2022/12/13 01:09:38;;;;;;;44.40;20.75;;;-3.20;99.90;;;;;;5127117;27;20051;-83
2022/12/13 01:12:05;;;;;;;45.63;20.20;;;-2.20;99.90;;;;;;5108900;27;20051;-83
2022/12/13 01:14:34;;;;;;;38.58;18.17;;;-3.20;99.90;;;;;;5107708;28;20188;-84
2022/12/13 01:16:59;;;;;;;40.08;18.15;;;-3.20;99.90;;;;;;5126960;27;20308;-83
2022/12/13 01:19:27;;;;;;;42.63;19.38;;;-3.20;99.90;;;;;;5108889;28;20730;-84
2022/12/13 01:21:57;;;;;;;40.03;18.20;;;-3.30;99.90;;;;;;5091320;28;20390;-84
2022/12/13 01:24:24;;;;;;;42.60;18.60;;;-3.30;99.90;;;;;;5127338;28;20100;-83
2022/12/13 01:26:52;;;;;;;36.00;18.50;;;-3.30;99.90;;;;;;5107675;28;20370;-84
2022/12/13 01:29:20;;;;;;;40.78;18.80;;;-3.40;99.90;;;;;;5091971;28;20047;-83
2022/12/13 01:31:46;;;;;;;39.67;19.48;;;-3.40;99.90;;;;;;5090937;28;20094;-85
2022/12/13 01:34:14;;;;;;;37.72;18.98;;;-3.40;99.90;;;;;;5126385;28;20405;-85
2022/12/13 01:36:42;;;;;;;42.55;18.15;;;-3.40;99.90;;;;;;5127286;28;20047;-84
2022/12/13 01:39:10;;;;;;;41.10;18.63;;;-3.40;99.90;;;;;;5126020;28;20039;-85
2022/12/13 01:41:36;;;;;;;37.05;19.15;;;-3.40;99.90;;;;;;5108366;28;20031;-84
2022/12/13 01:44:26;;;;;;;32.47;17.88;;;-3.40;99.90;;;;;;5107241;28;20078;-83
2022/12/13 01:46:51;;;;;;;41.33;17.67;;;-3.40;99.90;;;;;;5126296;28;20078;-85
2022/12/13 01:49:17;;;;;;;37.75;17.45;;;-3.50;99.90;;;;;;5107490;28;20427;-84
2022/12/13 01:51:53;;;;;;;36.47;18.70;;;-2.90;99.90;;;;;;5090518;28;20035;-85
2022/12/13 01:54:29;;;;;;;39.03;18.85;;;-3.60;99.90;;;;;;5108686;28;20473;-85
2022/12/13 01:56:57;;;;;;;34.60;18.42;;;-3.60;99.90;;;;;;5107500;28;20055;-83
2022/12/13 01:59:25;;;;;;;36.38;17.33;;;-2.80;99.90;;;;;;5074565;28;20054;-84
2022/12/13 02:01:52;;;;;;;37.72;17.42;;;-3.70;99.90;;;;;;5090522;28;20078;-84
2022/12/13 02:04:24;;;;;;;39.78;18.17;;;-3.70;99.90;;;;;;5107645;28;20043;-84
2022/12/13 02:06:51;;;;;;;35.15;17.40;;;-3.80;99.90;;;;;;5107840;28;20047;-84
2022/12/13 02:09:17;;;;;;;39.83;17.17;;;-3.80;99.90;;;;;;5090142;28;20107;-84
2022/12/13 02:11:44;;;;;;;38.95;17.80;;;-3.80;99.90;;;;;;5091447;28;20047;-84
2022/12/13 02:14:10;;;;;;;33.88;16.83;;;-3.90;99.90;;;;;;5090008;28;20035;-84
2022/12/13 02:16:41;;;;;;;36.33;17.92;;;-3.90;99.90;;;;;;5091242;28;20462;-84
2022/12/13 02:19:35;;;;;;;37.17;16.27;;;-4.00;99.90;;;;;;5107222;28;20060;-84
2022/12/13 02:22:00;;;;;;;;;;;-4.00;99.90;;;;;;5107774;28;20094;-84
2022/12/13 02:25:04;;;;;;;37.53;18.17;;;-4.00;99.90;;;;;;5091361;28;20391;-85
2022/12/13 02:27:36;;;;;;;38.42;17.58;;;-4.00;99.90;;;;;;5024946;28;20152;-84
2022/12/13 02:30:40;;;;;;;39.55;18.20;;;-4.10;99.90;;;;;;5095046;27;20348;-85
2022/12/13 02:33:15;;;;;;;35.85;16.55;;;-4.10;99.90;;;;;;5083817;27;20051;-84
2022/12/13 02:36:01;;;;;;;38.55;18.02;;;-4.00;99.90;;;;;;5093249;27;20147;-85
2022/12/13 02:38:29;;;;;;;48.50;17.92;;;-4.10;99.90;;;;;;5111396;27;20043;-84
2022/12/13 02:41:36;;;;;;;40.85;17.00;;;-4.10;99.90;;;;;;5129315;27;20134;-85
2022/12/13 02:44:25;;;;;;;37.25;17.17;;;-4.10;99.90;;;;;;5110273;27;20027;-85
2022/12/13 02:46:58;;;;;;;36.22;18.02;;;-4.10;99.90;;;;;;5111494;27;20051;-85
2022/12/13 02:49:28;;;;;;;36.22;17.48;;;-4.10;99.90;;;;;;5110648;27;20402;-85
2022/12/13 02:51:56;;;;;;;34.42;16.73;;;-4.10;99.90;;;;;;5111084;27;20508;-84
2022/12/13 02:54:23;;;;;;;39.58;18.98;;;-4.20;99.90;;;;;;5129750;27;20093;-84
2022/12/13 02:56:56;;;;;;;38.15;19.05;;;-4.10;99.90;;;;;;5110179;27;20137;-84
2022/12/13 02:59:26;;;;;;;41.05;18.83;;;-4.10;99.90;;;;;;5111363;27;20694;-85
2022/12/13 03:02:04;;;;;;;36.13;17.95;;;-4.10;99.90;;;;;;5093214;27;20104;-85
2022/12/13 03:08:14;;;;;;;38.28;16.48;;;-4.20;99.90;;;;;;5110145;27;20062;-85
2022/12/13 03:11:05;;;;;;;48.38;17.52;;;-4.20;99.90;;;;;;5106904;28;20492;-84
2022/12/13 03:13:53;;;;;;;40.20;17.23;;;-4.20;99.90;;;;;;5108333;28;20047;-85
2022/12/13 03:16:39;;;;;;;33.55;16.67;;;-4.20;99.90;;;;;;5107843;28;20042;-85
2022/12/13 03:19:08;;;;;;;42.20;18.42;;;-4.20;99.90;;;;;;5106321;28;20090;-85
2022/12/13 03:21:46;;;;;;;36.28;17.23;;;-4.20;99.90;;;;;;5090782;28;20488;-85
2022/12/13 03:24:11;;;;;;;34.63;17.73;;;-4.30;99.90;;;;;;5108197;28;20044;-82
2022/12/13 03:26:40;;;;;;;39.80;19.10;;;-4.30;99.90;;;;;;5108392;28;20101;-83
2022/12/13 03:29:06;;;;;;;43.85;17.45;;;-4.30;99.90;;;;;;5109297;28;20055;-84
2022/12/13 03:31:32;;;;;;;36.58;16.88;;;-4.40;99.90;;;;;;5106176;28;20039;-84
2022/12/13 03:33:58;;;;;;;37.10;18.27;;;-4.40;99.90;;;;;;5109542;28;20036;-84
2022/12/13 03:36:24;;;;;;;36.63;16.40;;;-4.30;99.90;;;;;;5106903;28;20046;-84
2022/12/13 03:38:52;;;;;;;36.85;17.40;;;-4.40;99.90;;;;;;5122913;27;20047;-84
2022/12/13 03:41:21;;;;;;;34.17;17.33;;;-4.40;99.90;;;;;;5105279;28;20159;-85
2022/12/13 03:43:47;;;;;;;42.97;17.70;;;-4.40;99.90;;;;;;5107435;28;20398;-84
2022/12/13 03:46:13;;;;;;;40.00;17.60;;;-4.40;99.90;;;;;;5107480;28;20044;-84
2022/12/13 03:48:39;;;;;;;41.42;17.05;;;-4.40;99.90;;;;;;5106138;28;20050;-84
2022/12/13 03:51:05;;;;;;;38.03;17.40;;;-4.40;99.90;;;;;;5106359;28;20035;-84
2022/12/13 03:53:31;;;;;;;41.38;18.58;;;-4.40;99.90;;;;;;5106335;28;20160;-84
2022/12/13 03:55:56;;;;;;;39.20;18.10;;;-4.40;99.90;;;;;;5107871;28;20048;-84
2022/12/13 03:58:22;;;;;;;40.45;19.33;;;-3.70;99.90;;;;;;5105925;28;20474;-85
2022/12/13 04:00:48;;;;;;;41.03;16.88;;;-4.30;99.90;;;;;;5106078;28;20044;-85
2022/12/13 04:03:14;;;;;;;43.40;18.25;;;-4.20;99.90;;;;;;5089110;28;20584;-84
2022/12/13 04:05:40;;;;;;;37.17;18.15;;;-4.10;99.90;;;;;;5088062;28;20435;-84
2022/12/13 04:08:06;;;;;;;40.42;18.85;;;-4.00;99.90;;;;;;5108571;27;20118;-84
2022/12/13 04:10:32;;;;;;;37.60;17.00;;;-4.00;99.90;;;;;;5091010;27;20522;-84
2022/12/13 04:15:47;;;;;;;32.50;16.33;;;-3.90;99.90;;;;;;5110339;27;20378;-84
2022/12/13 04:18:19;;;;;;;41.03;18.52;;;-3.90;99.90;;;;;;5112821;27;20104;-85
2022/12/13 04:20:46;;;;;;;31.97;13.30;;;-3.90;99.90;;;;;;5130279;27;20050;-84
2022/12/13 04:23:13;;;;;;;43.78;19.17;;;-3.80;99.90;;;;;;5110889;27;20296;-84
2022/12/13 04:25:39;;;;;;;38.33;18.17;;;-3.80;99.90;;;;;;5112364;27;20099;-86
2022/12/13 04:28:05;;;;;;;43.38;18.30;;;-3.80;99.90;;;;;;5092690;27;20054;-84
2022/12/13 04:30:31;;;;;;;42.85;17.65;;;-3.80;99.90;;;;;;5092541;27;20130;-84
2022/12/13 04:32:57;;;;;;;35.60;17.23;;;-3.70;99.90;;;;;;5127299;27;20123;-85
2022/12/13 04:35:22;;;;;;;33.85;17.42;;;-3.70;99.90;;;;;;5127343;27;20039;-84
2022/12/13 04:37:48;;;;;;;35.67;17.08;;;-3.70;99.90;;;;;;5110116;27;20039;-85
2022/12/13 04:40:14;;;;;;;32.15;16.77;;;-3.70;99.90;;;;;;5108637;27;20046;-85
2022/12/13 04:42:39;;;;;;;33.22;17.70;;;-4.40;99.90;;;;;;5110298;27;20046;-85
2022/12/13 04:45:05;;;;;;;33.20;17.58;;;-3.70;99.90;;;;;;5073861;27;20444;-85
2022/12/13 04:47:31;;;;;;;35.00;16.60;;;-3.70;99.90;;;;;;5092822;27;20127;-84
2022/12/13 04:49:57;;;;;;;28.80;16.02;;;-3.10;99.90;;;;;;5091377;27;20043;-85
2022/12/13 04:52:22;;;;;;;37.08;17.05;;;-3.80;99.90;;;;;;5074021;27;20039;-84
2022/12/13 04:54:49;;;;;;;30.92;16.23;;;-3.90;99.90;;;;;;5094357;27;20035;-83
2022/12/13 04:57:14;;;;;;;38.80;16.35;;;-3.90;99.90;;;;;;5111629;27;20043;-84
2022/12/13 04:59:40;;;;;;;36.97;16.80;;;-4.00;99.90;;;;;;5112787;27;20046;-84
2022/12/13 05:02:08;;;;;;;37.33;16.88;;;-4.00;99.90;;;;;;5077986;27;20039;-84
2022/12/13 05:04:34;;;;;;;39.53;18.30;;;-4.10;99.90;;;;;;5112767;27;20078;-85
2022/12/13 05:07:01;;;;;;;33.97;16.42;;;-2.90;99.90;;;;;;5111700;28;20395;-84
2022/12/13 05:09:26;;;;;;;34.03;16.90;;;-4.10;99.90;;;;;;5075386;28;20109;-85
2022/12/13 05:11:52;;;;;;;38.55;16.35;;;-4.20;99.90;;;;;;5109882;28;20479;-85
2022/12/13 05:14:18;;;;;;;37.92;17.17;;;-4.20;99.90;;;;;;5110289;28;20047;-85
2022/12/13 05:16:43;;;;;;;32.47;17.40;;;-4.20;99.90;;;;;;5074924;28;20416;-86
2022/12/13 05:19:09;;;;;;;37.92;16.55;;;-4.30;99.90;;;;;;5074322;28;20043;-87
2022/12/13 05:21:35;;;;;;;29.27;15.25;;;-2.90;99.90;;;;;;5108601;28;20100;-86
2022/12/13 05:24:05;;;;;;;37.30;17.88;;;-4.30;99.90;;;;;;5071030;28;20185;-88
2022/12/13 05:26:30;;;;;;;30.90;16.08;;;-4.30;99.90;;;;;;5104719;28;20043;-86
2022/12/13 05:28:57;;;;;;;32.60;15.25;;;-4.40;99.90;;;;;;5087318;28;20055;-87
2022/12/13 05:31:23;;;;;;;30.50;15.98;;;-4.40;99.90;;;;;;5104276;28;20039;-87
2022/12/13 05:33:50;;;;;;;34.97;16.95;;;-4.40;99.90;;;;;;5089168;28;20127;-87
2022/12/13 05:36:15;;;;;;;31.33;15.13;;;-4.40;99.90;;;;;;5105430;28;20121;-85
2022/12/13 05:38:41;;;;;;;34.92;16.40;;;-4.50;99.90;;;;;;5105965;28;20051;-84
2022/12/13 05:41:15;;;;;;;38.78;16.85;;;-4.50;99.90;;;;;;5086986;28;20075;-88
2022/12/13 05:43:41;;;;;;;30.85;15.77;;;-4.50;99.90;;;;;;5104850;28;20048;-88
2022/12/13 05:46:07;;;;;;;31.73;16.38;;;-4.60;99.90;;;;;;5070379;28;20046;-85
2022/12/13 05:48:32;;;;;;;33.85;15.40;;;-4.60;99.90;;;;;;5103796;28;20077;-86
2022/12/13 05:50:58;;;;;;;34.85;16.23;;;-4.60;99.90;;;;;;5104720;28;20131;-86
2022/12/13 05:53:24;;;;;;;36.60;15.35;;;-4.60;99.90;;;;;;5086086;28;20032;-87
2022/12/13 05:55:49;;;;;;;28.80;14.80;;;-4.60;99.90;;;;;;5088100;28;20044;-86
2022/12/13 05:58:16;;;;;;;27.67;14.40;;;-4.60;99.90;;;;;;5102851;28;20452;-86
2022/12/13 06:00:42;;;;;;;30.83;16.60;;;-4.70;99.90;;;;;;5070166;28;20055;-86
2022/12/13 06:03:08;;;;;;;26.98;13.95;;;-3.50;99.90;;;;;;5069565;28;20483;-85
2022/12/13 06:05:33;;;;;;;31.35;14.48;;;-4.70;99.90;;;;;;5073601;28;20077;-85
2022/12/13 06:07:59;;;;;;;33.15;16.15;;;-4.70;99.90;;;;;;5057552;28;20437;-84
2022/12/13 06:10:26;;;;;;;32.15;16.48;;;-4.80;99.90;;;;;;5093950;27;20402;-85
2022/12/13 06:12:52;;;;;;;34.45;16.13;;;-4.80;99.90;;;;;;5094464;27;20046;-84
2022/12/13 06:15:18;;;;;;;29.27;13.98;;;-4.80;99.90;;;;;;5075963;27;20376;-84
2022/12/13 06:17:46;;;;;;;35.17;15.88;;;-4.90;99.90;;;;;;5129910;27;20040;-83
2022/12/13 06:20:12;;;;;;;32.47;14.45;;;-4.90;99.90;;;;;;5093734;27;20043;-84
2022/12/13 06:22:37;;;;;;;37.65;16.63;;;-4.90;99.90;;;;;;5110502;27;20039;-86
2022/12/13 06:25:04;;;;;;;34.95;17.25;;;-5.00;99.90;;;;;;5093751;27;20429;-86
2022/12/13 06:27:29;;;;;;;34.72;15.85;;;-5.00;99.90;;;;;;5076246;27;20036;-86
2022/12/13 06:29:55;;;;;;;36.63;17.08;;;-5.00;99.90;;;;;;5077344;27;20371;-86
2022/12/13 06:32:21;;;;;;;38.95;16.67;;;-4.90;99.90;;;;;;5092688;27;20467;-83
2022/12/13 06:34:46;;;;;;;34.28;15.80;;;-4.90;99.90;;;;;;5093760;27;20552;-86
2022/12/13 06:37:13;;;;;;;33.90;18.33;;;-3.50;99.90;;;;;;5076182;27;20046;-85
2022/12/13 06:39:39;;;;;;;42.22;16.83;;;-4.90;99.90;;;;;;5092685;27;20122;-86
2022/12/13 06:42:06;;;;;;;41.90;18.08;;;-4.90;99.90;;;;;;5110546;27;20039;-87
2022/12/13 06:44:33;;;;;;;38.50;17.30;;;-4.90;99.90;;;;;;5109621;27;20095;-87
2022/12/13 06:47:01;;;;;;;40.47;18.23;;;-4.90;99.90;;;;;;5110694;27;20494;-87
2022/12/13 06:49:27;;;;;;;48.10;18.27;;;-4.90;99.90;;;;;;5110177;27;20039;-86
2022/12/13 06:51:53;;;;;;;38.85;19.08;;;-4.90;99.90;;;;;;5077482;27;20129;-86
2022/12/13 06:54:19;;;;;;;45.33;18.05;;;-4.90;99.90;;;;;;5075844;27;20542;-87
2022/12/13 06:56:45;;;;;;;46.42;19.75;;;-3.70;99.90;;;;;;5110268;27;20048;-87
2022/12/13 06:59:11;;;;;;;33.13;17.63;;;-4.90;99.90;;;;;;5110065;27;20228;-86
2022/12/13 07:01:37;;;;;;;45.83;20.50;;;-4.90;99.90;;;;;;5092486;27;20039;-86
2022/12/13 07:04:02;;;;;;;49.72;19.25;;;-4.90;99.90;;;;;;5077026;27;20042;-86
2022/12/13 07:06:28;;;;;;;44.67;20.40;;;-4.90;99.90;;;;;;5109283;27;20372;-86
2022/12/13 07:08:56;;;;;;;46.25;20.85;;;-4.90;99.90;;;;;;5093139;27;20406;-86
2022/12/13 07:11:25;;;;;;;40.10;17.52;;;-4.90;99.90;;;;;;5091932;27;20084;-87
2022/12/13 07:13:51;;;;;;;40.55;18.17;;;-4.90;99.90;;;;;;5110009;27;20062;-86
2022/12/13 07:16:17;;;;;;;36.75;18.45;;;-5.10;99.90;;;;;;5108895;27;20082;-86
2022/12/13 07:18:43;;;;;;;41.88;18.65;;;-4.90;99.90;;;;;;5075282;27;20066;-87
2022/12/13 07:21:11;;;;;;;42.92;18.77;;;-4.90;99.90;;;;;;5076263;27;20035;-87
2022/12/13 07:23:38;;;;;;;33.83;17.40;;;-4.90;99.90;;;;;;5108842;27;20054;-85
2022/12/13 07:26:05;;;;;;;41.05;19.92;;;-4.90;99.90;;;;;;5109734;27;20043;-86
2022/12/13 07:28:35;;;;;;;41.53;18.88;;;-4.90;99.90;;;;;;5108274;27;20482;-86
2022/12/13 07:31:04;;;;;;;41.15;20.10;;;-4.90;99.90;;;;;;5092255;27;20046;-86
2022/12/13 07:33:29;;;;;;;39.42;17.92;;;-4.80;99.90;;;;;;5108970;27;20058;-84
2022/12/13 07:36:03;;;;;;;41.08;19.30;;;-4.80;99.90;;;;;;5108485;27;20039;-86
2022/12/13 07:38:29;;;;;;;34.72;17.52;;;-4.80;99.90;;;;;;5092389;27;20045;-84
2022/12/13 07:40:56;;;;;;;34.05;17.83;;;-4.80;99.90;;;;;;5091366;27;20038;-85
2022/12/13 07:43:23;;;;;;;38.97;19.80;;;-4.70;99.90;;;;;;5092595;27;20480;-86
2022/12/13 07:45:48;;;;;;;33.58;18.05;;;-4.60;99.90;;;;;;5091019;27;20047;-86
2022/12/13 07:48:14;;;;;;;40.58;19.75;;;-4.60;99.90;;;;;;5091999;27;20046;-85
2022/12/13 07:50:40;;;;;;;41.33;20.60;;;-4.40;99.90;;;;;;5091586;27;20508;-85
2022/12/13 07:53:07;;;;;;;41.53;19.95;;;-4.30;99.90;;;;;;5074921;27;20523;-86
2022/12/13 07:55:34;;;;;;;40.30;20.70;;;-4.10;99.90;;;;;;5109214;27;20043;-87
2022/12/13 07:58:11;;;;;;;42.22;20.25;;;-4.00;99.90;;;;;;5108210;27;20081;-85
2022/12/13 08:00:37;;;;;;;37.72;18.60;;;-4.80;99.90;;;;;;5108870;27;20088;-85
2022/12/13 08:03:04;;;;;;;47.53;20.67;;;-3.80;99.90;;;;;;5090984;27;20039;-86
2022/12/13 08:05:30;;;;;;;44.55;20.42;;;-3.80;99.90;;;;;;5108321;27;20047;-85
2022/12/13 08:07:56;;;;;;;39.20;19.48;;;-3.70;99.90;;;;;;5091622;27;20100;-85
2022/12/13 08:10:22;;;;;;;43.15;20.10;;;-3.60;99.90;;;;;;5090612;27;20043;-86
2022/12/13 08:12:49;;;;;;;35.15;19.40;;;-3.60;99.90;;;;;;5075341;27;20047;-87
2022/12/13 08:15:15;;;;;;;38.22;18.48;;;-3.60;99.90;;;;;;5091130;27;20138;-87
2022/12/13 08:17:41;;;;;;;39.10;20.08;;;-3.50;99.90;;;;;;5091736;27;20045;-86
2022/12/13 08:20:07;;;;;;;39.67;19.75;;;-3.50;99.90;;;;;;5090954;27;20130;-87
2022/12/13 08:22:33;;;;;;;41.72;20.58;;;-3.40;99.90;;;;;;5108068;27;20051;-86
2022/12/13 08:24:58;;;;;;;46.05;19.40;;;-3.10;99.90;;;;;;5090788;27;20047;-87
2022/12/13 08:27:24;;;;;;;39.03;19.45;;;-3.40;99.90;;;;;;5106652;27;20130;-86
2022/12/13 08:29:50;;;;;;;51.05;23.35;;;-3.40;99.90;;;;;;5091725;27;20078;-86
2022/12/13 08:32:15;;;;;;;60.25;24.55;;;-3.30;99.90;;;;;;5073751;27;20517;-87
2022/12/13 08:34:41;;;;;;;48.83;23.45;;;-3.30;99.90;;;;;;5074692;27;20044;-86
2022/12/13 08:37:07;;;;;;;57.90;24.15;;;-3.30;99.90;;;;;;5073302;27;20039;-86
2022/12/13 08:39:35;;;;;;;52.28;23.48;;;-3.30;99.90;;;;;;5090868;27;20039;-86
2022/12/13 08:42:16;;;;;;;46.28;20.90;;;-3.30;99.90;;;;;;5091243;27;20094;-86
2022/12/13 08:44:42;;;;;;;43.63;19.98;;;-3.30;99.90;;;;;;5107182;27;20153;-87
2022/12/13 08:47:07;;;;;;;41.53;20.70;;;-3.30;99.90;;;;;;5091332;27;20106;-86
2022/12/13 08:49:33;;;;;;;48.33;21.15;;;-3.20;99.90;;;;;;5090562;27;20031;-86
2022/12/13 08:51:59;;;;;;;38.88;20.27;;;-3.20;99.90;;;;;;5074756;27;20043;-85
2022/12/13 08:54:25;;;;;;;47.15;21.17;;;-3.10;99.90;;;;;;5107477;27;20039;-87
2022/12/13 08:56:51;;;;;;;41.17;19.38;;;-3.20;99.90;;;;;;5074059;27;20116;-87
2022/12/13 08:59:17;;;;;;;49.30;19.67;;;-3.10;99.90;;;;;;5074235;27;20139;-87
2022/12/13 09:01:43;;;;;;;37.83;19.73;;;-3.10;99.90;;;;;;5107348;27;20088;-87
2022/12/13 09:04:09;;;;;;;40.38;19.63;;;-3.00;99.90;;;;;;5108136;27;20125;-87
2022/12/13 09:06:36;;;;;;;38.22;19.42;;;-3.00;99.90;;;;;;5107079;27;20420;-87
2022/12/13 09:09:02;;;;;;;46.22;21.80;;;-3.00;99.90;;;;;;5091605;27;20047;-87
2022/12/13 09:11:27;;;;;;;44.60;20.10;;;-2.90;99.90;;;;;;5091886;27;20400;-87
2022/12/13 09:13:53;;;;;;;39.80;18.90;;;-2.80;99.90;;;;;;5109189;28;20675;-87
2022/12/13 09:16:23;;;;;;;49.03;22.45;;;-2.80;99.90;;;;;;5075108;28;20122;-87
2022/12/13 09:18:51;;;;;;;44.25;22.98;;;-2.70;99.90;;;;;;5107963;28;20043;-87
2022/12/13 09:21:17;;;;;;;41.80;20.23;;;-2.70;99.90;;;;;;5111950;28;20095;-87
2022/12/13 09:23:43;;;;;;;39.92;20.80;;;-2.60;99.90;;;;;;5099248;28;20065;-87
2022/12/13 09:26:12;;;;;;;39.08;19.10;;;-2.60;99.90;;;;;;5098061;28;20486;-87
2022/12/13 09:28:39;;;;;;;43.40;20.90;;;-2.60;99.90;;;;;;5096666;28;20120;-87
2022/12/13 09:31:13;;;;;;;42.38;20.60;;;-2.60;99.90;;;;;;5094227;28;20044;-87
2022/12/13 09:33:39;;;;;;;44.38;22.58;;;-2.50;99.90;;;;;;5095745;28;20049;-87
2022/12/13 09:36:09;;;;;;;36.40;20.67;;;-2.50;99.90;;;;;;5099350;28;20096;-87
2022/12/13 09:38:35;;;;;;;39.47;19.85;;;-2.40;99.90;;;;;;5117914;27;20046;-88
2022/12/13 09:41:30;;;;;;;42.33;19.10;;;-2.30;99.90;;;;;;5120937;27;20059;-88
2022/12/13 09:44:01;;;;;;;37.92;19.08;;;-2.20;99.90;;;;;;5124507;27;20047;-87
2022/12/13 09:46:31;;;;;;;41.38;20.02;;;-2.10;99.90;;;;;;5124226;27;20047;-88
2022/12/13 09:48:57;;;;;;;43.40;19.33;;;-2.00;99.90;;;;;;5115521;27;20046;-88
2022/12/13 09:51:24;;;;;;;41.92;19.33;;;-1.90;99.90;;;;;;5117085;27;20051;-88
2022/12/13 09:53:52;;;;;;;36.42;18.13;;;-1.90;99.90;;;;;;5101455;27;20039;-88
2022/12/13 09:56:20;;;;;;;37.08;19.15;;;-1.80;99.90;;;;;;5122301;27;20051;-86
2022/12/13 09:58:55;;;;;;;34.58;16.98;;;-1.80;99.90;;;;;;5102157;27;20039;-87
2022/12/13 10:01:22;;;;;;;32.25;17.30;;;-1.70;99.90;;;;;;5097853;27;20054;-87
2022/12/13 10:03:54;;;;;;;32.75;15.98;;;-1.70;99.90;;;;;;5114411;27;20043;-87
2022/12/13 10:06:23;;;;;;;29.02;16.42;;;-1.60;99.90;;;;;;5111806;27;20043;-87
2022/12/13 10:08:51;;;;;;;34.17;17.67;;;-1.30;99.90;;;;;;5111882;27;20410;-87
2022/12/13 10:11:19;;;;;;;30.50;15.45;;;-1.50;99.90;;;;;;5111298;27;20390;-88
2022/12/13 10:14:11;;;;;;;28.98;15.07;;;-0.60;99.90;;;;;;5110932;27;20149;-87
2022/12/13 10:16:36;;;;;;;27.73;15.55;;;-1.40;99.90;;;;;;5094172;27;20517;-87
2022/12/13 10:19:17;;;;;;;27.60;14.38;;;-1.30;99.90;;;;;;5111209;27;20043;-86
2022/12/13 10:21:45;;;;;;;26.60;14.65;;;-1.30;99.90;;;;;;5111195;27;20125;-87
2022/12/13 10:24:29;;;;;;;34.78;17.25;;;-1.20;99.90;;;;;;5093352;27;20040;-86
2022/12/13 10:27:10;;;;;;;27.30;14.70;;;-1.20;99.90;;;;;;5129333;27;20398;-86
2022/12/13 10:30:23;;;;;;;27.33;14.68;;;-1.10;99.90;;;;;;5093534;27;20613;-87
2022/12/13 10:32:57;;;;;;;33.63;14.75;;;-1.00;99.90;;;;;;5084271;27;20103;-86
2022/12/13 10:35:31;;;;;;;26.58;14.43;;;-0.90;99.90;;;;;;5093095;27;20050;-86
2022/12/13 10:38:06;;;;;;;28.25;15.20;;;-0.90;99.90;;;;;;5110394;27;20047;-86
2022/12/13 10:40:34;;;;;;;29.75;15.60;;;-0.90;99.90;;;;;;5110423;27;20371;-85
2022/12/13 10:43:11;;;;;;;32.30;15.30;;;-0.80;99.90;;;;;;5110142;27;20130;-86
2022/12/13 10:45:37;;;;;;;32.20;15.93;;;-0.70;99.90;;;;;;5109715;27;20035;-86
2022/12/13 10:48:04;;;;;;;30.17;16.75;;;-0.60;99.90;;;;;;5110190;27;20210;-86
2022/12/13 10:50:30;;;;;;;33.92;17.17;;;-0.60;99.90;;;;;;5091809;27;20044;-86
2022/12/13 10:52:59;;;;;;;31.35;16.02;;;-0.50;99.90;;;;;;5109737;27;20043;-85
2022/12/13 10:55:33;;;;;;;33.22;17.02;;;-0.40;99.90;;;;;;5092816;27;20075;-85
2022/12/13 10:58:08;;;;;;;27.40;15.32;;;-0.30;99.90;;;;;;5109634;27;20482;-86
2022/12/13 11:00:43;;;;;;;28.38;13.93;;;-0.20;99.90;;;;;;5093251;27;20523;-85
2022/12/13 11:03:12;;;;;;;34.28;15.57;;;-0.10;99.90;;;;;;5108856;27;20051;-85
2022/12/13 11:05:39;;;;;;;26.02;14.48;;;0.00;99.90;;;;;;5109538;27;20043;-85
2022/12/13 11:08:14;;;;;;;27.70;16.05;;;0.00;99.90;;;;;;5109447;27;20043;-86
2022/12/13 11:10:40;;;;;;;23.95;13.40;;;0.20;99.90;;;;;;5109843;27;20086;-86
2022/12/13 11:13:06;;;;;;;24.67;13.52;;;0.20;99.90;;;;;;5109859;27;20105;-86
2022/12/13 11:15:36;;;;;;;22.10;13.52;;;0.30;99.90;;;;;;5108911;27;20038;-86
2022/12/13 11:18:05;;;;;;;21.75;12.90;;;0.40;99.90;;;;;;5092342;27;20397;-85
2022/12/13 11:20:36;;;;;;;24.33;12.27;;;0.90;99.90;;;;;;5109278;27;20398;-85
2022/12/13 11:23:21;;;;;;;21.92;12.35;;;0.60;99.90;;;;;;5091982;27;20047;-85
2022/12/13 11:25:47;;;;;;;28.52;13.10;;;0.60;99.90;;;;;;5092223;27;20074;-86
2022/12/13 11:28:34;;;;;;;24.25;13.95;;;0.70;99.90;;;;;;5091594;27;20082;-86
2022/12/13 11:31:09;;;;;;;25.73;13.40;;;0.80;99.90;;;;;;5109341;27;20061;-86
2022/12/13 11:34:09;;;;;;;23.83;13.15;;;0.90;99.90;;;;;;5092244;27;20039;-86
2022/12/13 11:36:37;;;;;;;24.85;13.32;;;2.30;99.90;;;;;;5108924;27;20467;-87
2022/12/13 11:39:09;;;;;;;24.23;12.77;;;1.00;99.90;;;;;;5091972;27;20035;-86
2022/12/13 11:41:44;;;;;;;27.35;12.35;;;1.10;99.90;;;;;;5108075;27;20053;-87
2022/12/13 11:44:22;;;;;;;28.67;12.95;;;0.70;99.90;;;;;;5091462;27;20058;-86
2022/12/13 11:46:55;;;;;;;28.38;13.10;;;1.20;99.90;;;;;;5108451;27;20047;-87
2022/12/13 11:49:27;;;;;;;26.38;12.15;;;1.20;99.90;;;;;;5109163;27;20371;-87
2022/12/13 11:52:00;;;;;;;24.00;13.13;;;1.30;99.90;;;;;;5108881;27;20074;-86
2022/12/13 11:54:49;;;;;;;20.83;11.63;;;1.40;99.90;;;;;;5108437;27;20525;-86
2022/12/13 11:57:40;;;;;;;18.20;11.40;;;1.40;99.90;;;;;;5108482;27;20406;-86
2022/12/13 12:00:30;;;;;;;25.38;12.90;;;1.50;99.90;;;;;;5108618;27;20047;-86
2022/12/13 12:03:18;;;;;;;19.90;11.20;;;1.50;99.90;;;;;;5107851;27;20526;-87
2022/12/13 12:06:01;;;;;;;19.08;10.43;;;1.50;99.90;;;;;;5108213;27;20047;-86
2022/12/13 12:08:36;;;;;;;;;;;1.60;99.90;;;;;;5108786;27;20051;-86
2022/12/13 12:11:25;;;;;;;19.23;11.07;;;1.50;99.90;;;;;;5108596;27;19919;-86
2022/12/13 12:14:03;;;;;;;19.92;10.43;;;1.60;99.90;;;;;;5090434;27;20047;-87
2022/12/13 12:16:49;;;;;;;17.45;9.48;;;1.60;99.90;;;;;;5107766;27;20039;-87
2022/12/13 12:19:18;;;;;;;22.15;11.43;;;1.70;99.90;;;;;;5090829;27;20130;-86
2022/12/13 12:21:44;;;;;;;22.55;12.20;;;1.70;99.90;;;;;;5107745;27;20072;-87
2022/12/13 12:24:43;;;;;;;18.15;11.57;;;1.70;99.90;;;;;;5090385;27;20081;-86
2022/12/13 12:27:32;;;;;;;19.20;10.05;;;1.80;99.90;;;;;;5091848;27;20394;-86
2022/12/13 12:30:08;;;;;;;16.88;10.20;;;1.80;99.90;;;;;;5109087;27;20513;-86
2022/12/13 12:32:52;;;;;;;17.25;9.50;;;1.80;99.90;;;;;;5108006;27;20100;-87
2022/12/13 12:35:28;;;;;;;19.35;9.30;;;1.80;99.90;;;;;;5108827;27;20043;-87
2022/12/13 12:38:25;;;;;;;17.40;9.85;;;1.80;99.90;;;;;;5109246;27;20494;-87
2022/12/13 12:40:53;;;;;;;14.48;8.98;;;1.90;99.90;;;;;;5109630;27;20043;-86
2022/12/13 12:43:25;;;;;;;18.15;9.77;;;1.90;99.90;;;;;;5093438;27;20047;-87
2022/12/13 12:46:20;;;;;;;16.60;9.32;;;1.90;99.90;;;;;;5109518;27;20043;-86
2022/12/13 12:48:53;;;;;;;16.65;9.77;;;1.90;99.90;;;;;;5109339;27;20040;-87